Time;durP1;ratioP1;P1;durP2;ratioP2;P2;SDS_P1;SDS_P2;PMS_P1;PMS_P2;Temp;Humidity;BMP_temperature;BMP_pressure;BME280_temperature;BME280_humidity;BME280_pressure;Samples;Min_cycle;Max_cycle;Signal;HPM_P1;HPM_P2
2021/05/03 00:00:37;;;;;;;5.22;3.70;;;;;;;;;;6159464;23;20030;-83
2021/05/03 00:03:03;;;;;;;7.88;4.88;;;;;;;;;;6136335;23;20083;-86
2021/05/03 00:05:29;;;;;;;11.15;4.80;;;;;;;;;;6137108;23;20026;-86
2021/05/03 00:07:56;;;;;;;7.93;4.47;;;;;;;;;;6161409;23;20107;-86
2021/05/03 00:10:22;;;;;;;12.60;5.22;;;;;;;;;;6156767;23;20120;-85
2021/05/03 00:12:49;;;;;;;10.07;4.88;;;;;;;;;;6154376;23;20026;-85
2021/05/03 00:15:15;;;;;;;12.07;5.25;;;;;;;;;;6128321;23;20025;-85
2021/05/03 00:17:42;;;;;;;9.73;4.90;;;;;;;;;;6127909;23;20049;-83
2021/05/03 00:20:09;;;;;;;9.48;4.82;;;;;;;;;;6153220;23;20040;-84
2021/05/03 00:22:36;;;;;;;9.07;5.10;;;;;;;;;;6130440;23;20040;-85
2021/05/03 00:25:02;;;;;;;7.60;4.57;;;;;;;;;;6129665;23;20033;-85
2021/05/03 00:27:29;;;;;;;8.68;4.88;;;;;;;;;;6156016;23;20073;-85
2021/05/03 00:29:55;;;;;;;8.95;4.90;;;;;;;;;;6130881;23;20032;-85
2021/05/03 00:32:22;;;;;;;10.13;4.82;;;;;;;;;;6129331;23;20113;-85
2021/05/03 00:34:48;;;;;;;7.35;4.45;;;;;;;;;;6156274;23;20051;-86
2021/05/03 00:37:14;;;;;;;9.35;4.25;;;;;;;;;;6130259;23;20026;-85
2021/05/03 00:39:41;;;;;;;6.65;4.45;;;;;;;;;;6133917;23;20029;-87
2021/05/03 00:42:07;;;;;;;7.75;4.13;;;;;;;;;;6157801;23;20048;-85
2021/05/03 00:44:33;;;;;;;9.70;5.90;;;;;;;;;;6156938;23;20025;-85
2021/05/03 00:46:59;;;;;;;7.13;4.80;;;;;;;;;;6156020;23;20022;-85
2021/05/03 00:49:27;;;;;;;6.85;4.38;;;;;;;;;;6157451;23;20079;-85
2021/05/03 00:51:53;;;;;;;5.93;3.97;;;;;;;;;;6132483;23;20021;-84
2021/05/03 00:54:20;;;;;;;6.43;4.13;;;;;;;;;;6141948;23;20030;-84
2021/05/03 00:56:46;;;;;;;10.10;4.50;;;;;;;;;;6141663;23;20036;-85
2021/05/03 00:59:12;;;;;;;7.30;3.75;;;;;;;;;;6149984;22;20014;-85
2021/05/03 01:01:45;;;;;;;9.60;5.55;;;;;;;;;;6175086;23;20059;-85
2021/05/03 01:04:11;;;;;;;7.40;4.55;;;;;;;;;;6149653;22;20025;-86
2021/05/03 01:06:37;;;;;;;9.48;4.43;;;;;;;;;;6167206;23;20037;-85
2021/05/03 01:09:05;;;;;;;7.72;4.28;;;;;;;;;;6157951;23;20041;-86
2021/05/03 01:11:36;;;;;;;6.13;4.28;;;;;;;;;;6129839;23;20048;-85
2021/05/03 01:14:02;;;;;;;11.88;4.93;;;;;;;;;;6130809;23;20073;-85
2021/05/03 01:16:28;;;;;;;8.40;4.70;;;;;;;;;;6155533;23;20028;-86
2021/05/03 01:18:54;;;;;;;14.10;5.20;;;;;;;;;;6155764;23;20387;-85
2021/05/03 01:21:21;;;;;;;6.32;3.72;;;;;;;;;;6132025;23;20056;-86
2021/05/03 01:23:47;;;;;;;12.25;4.35;;;;;;;;;;6155194;23;20039;-86
2021/05/03 01:26:14;;;;;;;8.00;4.57;;;;;;;;;;6156633;23;20030;-86
2021/05/03 01:28:40;;;;;;;9.52;4.65;;;;;;;;;;6154606;23;20077;-85
2021/05/03 01:31:06;;;;;;;11.15;4.13;;;;;;;;;;6157437;23;20322;-85
2021/05/03 01:33:32;;;;;;;7.90;4.45;;;;;;;;;;6129958;23;20245;-85
2021/05/03 01:36:14;;;;;;;7.05;5.18;;;;;;;;;;6155635;23;20071;-85
2021/05/03 01:38:43;;;;;;;8.43;4.53;;;;;;;;;;6129483;23;20025;-85
2021/05/03 01:41:10;;;;;;;7.10;4.85;;;;;;;;;;6155156;23;20026;-85
2021/05/03 01:43:36;;;;;;;10.57;5.03;;;;;;;;;;6155035;23;20128;-85
2021/05/03 01:46:03;;;;;;;9.88;4.70;;;;;;;;;;6129724;23;20200;-85
2021/05/03 01:48:30;;;;;;;8.73;5.28;;;;;;;;;;6155642;23;20033;-85
2021/05/03 01:50:58;;;;;;;9.38;4.82;;;;;;;;;;6130502;23;20091;-84
2021/05/03 01:53:24;;;;;;;11.32;5.80;;;;;;;;;;6128641;23;20079;-84
2021/05/03 01:55:52;;;;;;;9.07;5.07;;;;;;;;;;6130698;23;20026;-84
2021/05/03 01:58:18;;;;;;;12.70;5.13;;;;;;;;;;6157121;23;20021;-85
2021/05/03 02:00:45;;;;;;;7.60;5.38;;;;;;;;;;6131192;23;20029;-85
2021/05/03 02:03:18;;;;;;;10.50;5.40;;;;;;;;;;6156815;23;20025;-85
2021/05/03 02:05:45;;;;;;;10.13;5.50;;;;;;;;;;6129910;23;20026;-85
2021/05/03 02:08:11;;;;;;;10.40;5.53;;;;;;;;;;6124681;23;20036;-85
2021/05/03 02:10:38;;;;;;;10.80;5.72;;;;;;;;;;6125996;23;20030;-85
2021/05/03 02:13:04;;;;;;;11.20;6.53;;;;;;;;;;6126232;23;20026;-85
2021/05/03 02:15:32;;;;;;;13.15;6.50;;;;;;;;;;6124701;23;20033;-85
2021/05/03 02:17:58;;;;;;;12.20;6.60;;;;;;;;;;6126113;23;20026;-84
2021/05/03 02:20:24;;;;;;;11.43;6.18;;;;;;;;;;6128501;23;20318;-85
2021/05/03 02:22:51;;;;;;;13.38;6.82;;;;;;;;;;6131033;23;20041;-84
2021/05/03 02:25:17;;;;;;;12.90;6.80;;;;;;;;;;6128947;23;20026;-84
2021/05/03 02:27:46;;;;;;;13.25;6.28;;;;;;;;;;6132916;23;20026;-84
2021/05/03 02:30:19;;;;;;;13.77;7.15;;;;;;;;;;6140357;23;20037;-84
2021/05/03 02:32:45;;;;;;;15.15;7.10;;;;;;;;;;6142027;22;20041;-84
2021/05/03 02:35:15;;;;;;;9.20;6.40;;;;;;;;;;6141625;23;20044;-85
2021/05/03 02:37:44;;;;;;;10.27;6.13;;;;;;;;;;6140684;23;20030;-85
2021/05/03 02:40:10;;;;;;;11.45;6.10;;;;;;;;;;6140859;23;20033;-85
2021/05/03 02:42:36;;;;;;;11.88;6.55;;;;;;;;;;6141760;23;20026;-85
2021/05/03 02:45:03;;;;;;;9.57;6.03;;;;;;;;;;6140756;23;20026;-85
2021/05/03 02:47:29;;;;;;;12.23;7.07;;;;;;;;;;6144244;23;20211;-85
2021/05/03 02:49:56;;;;;;;10.48;6.90;;;;;;;;;;6143726;22;20020;-84
2021/05/03 02:52:22;;;;;;;11.65;7.78;;;;;;;;;;6146029;22;20017;-84
2021/05/03 02:54:49;;;;;;;12.05;7.43;;;;;;;;;;6146028;22;20045;-84
2021/05/03 02:57:15;;;;;;;12.18;6.53;;;;;;;;;;6134566;22;20045;-85
2021/05/03 02:59:42;;;;;;;12.45;6.80;;;;;;;;;;6128027;23;20030;-85
2021/05/03 03:02:08;;;;;;;14.50;7.00;;;;;;;;;;6127936;23;20030;-85
2021/05/03 03:04:35;;;;;;;17.10;6.15;;;;;;;;;;6142862;22;20049;-84
2021/05/03 03:07:01;;;;;;;9.77;6.25;;;;;;;;;;6140585;22;20055;-85
2021/05/03 03:09:27;;;;;;;11.82;6.78;;;;;;;;;;6129943;23;20038;-85
2021/05/03 03:12:00;;;;;;;10.85;6.65;;;;;;;;;;6125958;23;20026;-85
2021/05/03 03:14:27;;;;;;;9.25;6.78;;;;;;;;;;6126380;23;20052;-85
2021/05/03 03:16:53;;;;;;;11.50;6.53;;;;;;;;;;6127307;23;20022;-85
2021/05/03 03:19:19;;;;;;;11.93;6.85;;;;;;;;;;6125407;23;20033;-84
2021/05/03 03:21:49;;;;;;;10.43;6.40;;;;;;;;;;6124338;23;20027;-85
2021/05/03 03:24:16;;;;;;;12.00;7.18;;;;;;;;;;6126440;23;20030;-85
2021/05/03 03:26:42;;;;;;;12.27;7.40;;;;;;;;;;6123559;23;20409;-85
2021/05/03 03:29:08;;;;;;;15.13;6.60;;;;;;;;;;6123977;23;20077;-85
2021/05/03 03:31:38;;;;;;;11.68;6.10;;;;;;;;;;6125887;23;20049;-85
2021/05/03 03:34:04;;;;;;;10.90;6.60;;;;;;;;;;6127570;23;20068;-85
2021/05/03 03:36:30;;;;;;;11.48;6.30;;;;;;;;;;6125783;23;20026;-84
2021/05/03 03:39:00;;;;;;;9.45;6.68;;;;;;;;;;6128808;23;20026;-85
2021/05/03 03:41:26;;;;;;;11.23;6.78;;;;;;;;;;6127152;23;20026;-85
2021/05/03 03:43:53;;;;;;;13.90;7.93;;;;;;;;;;6125213;23;20022;-85
2021/05/03 03:46:20;;;;;;;11.73;6.95;;;;;;;;;;6123737;23;20042;-84
2021/05/03 03:48:47;;;;;;;15.73;6.80;;;;;;;;;;6126467;23;20026;-85
2021/05/03 03:51:13;;;;;;;15.38;6.53;;;;;;;;;;6124512;23;20061;-85
2021/05/03 03:53:39;;;;;;;12.80;7.80;;;;;;;;;;6125395;23;20435;-85
2021/05/03 03:56:06;;;;;;;16.00;7.70;;;;;;;;;;6126942;23;20101;-86
2021/05/03 03:58:32;;;;;;;15.15;7.82;;;;;;;;;;6128586;23;20022;-86
2021/05/03 04:00:59;;;;;;;11.63;7.45;;;;;;;;;;6142090;23;20385;-84
2021/05/03 04:03:26;;;;;;;151.65;13.38;;;;;;;;;;6138892;23;20030;-84
2021/05/03 04:12:03;;;;;;;15.15;8.02;;;;;;;;;;6155520;23;20311;-85
2021/05/03 04:27:23;;;;;;;13.48;7.75;;;;;;;;;;6154188;23;20283;-84
2021/05/03 04:29:49;;;;;;;10.77;7.20;;;;;;;;;;6156032;23;20022;-84
2021/05/03 04:32:15;;;;;;;14.77;7.65;;;;;;;;;;6127964;23;20026;-84
2021/05/03 04:34:42;;;;;;;18.23;8.68;;;;;;;;;;6152424;23;20079;-85
2021/05/03 04:37:08;;;;;;;13.93;8.05;;;;;;;;;;6126800;23;20256;-85
2021/05/03 04:39:38;;;;;;;18.13;7.75;;;;;;;;;;6150479;23;20105;-85
2021/05/03 04:42:04;;;;;;;12.82;7.70;;;;;;;;;;6150295;23;20029;-85
2021/05/03 04:44:31;;;;;;;11.10;7.03;;;;;;;;;;6131772;23;20069;-85
2021/05/03 04:46:57;;;;;;;12.32;8.20;;;;;;;;;;6130796;23;20036;-86
2021/05/03 04:49:24;;;;;;;10.73;6.75;;;;;;;;;;6125167;23;20022;-85
2021/05/03 04:51:50;;;;;;;11.00;6.97;;;;;;;;;;6125611;23;20379;-85
2021/05/03 04:54:17;;;;;;;11.60;6.95;;;;;;;;;;6124458;23;20330;-85
2021/05/03 04:56:43;;;;;;;13.10;6.50;;;;;;;;;;6124378;23;20021;-85
2021/05/03 04:59:09;;;;;;;8.27;6.55;;;;;;;;;;6123106;23;20029;-85
2021/05/03 05:01:36;;;;;;;11.45;6.50;;;;;;;;;;6123157;23;20037;-85
2021/05/03 05:04:02;;;;;;;7.90;5.70;;;;;;;;;;6149105;23;20300;-85
2021/05/03 05:06:28;;;;;;;8.80;4.80;;;;;;;;;;6124526;23;20413;-86
2021/05/03 05:08:55;;;;;;;8.50;4.72;;;;;;;;;;6151092;23;20017;-86
2021/05/03 05:11:21;;;;;;;7.55;3.90;;;;;;;;;;6123262;23;20037;-85
2021/05/03 05:13:47;;;;;;;8.15;4.07;;;;;;;;;;6123978;23;20139;-86
2021/05/03 05:16:14;;;;;;;6.18;4.03;;;;;;;;;;6148528;23;20104;-84
2021/05/03 05:18:40;;;;;;;6.15;4.18;;;;;;;;;;6148581;23;20022;-84
2021/05/03 05:21:07;;;;;;;4.35;3.42;;;;;;;;;;6150931;23;20352;-85
2021/05/03 05:23:33;;;;;;;6.13;3.50;;;;;;;;;;6148575;23;20203;-85
2021/05/03 05:26:00;;;;;;;6.55;3.58;;;;;;;;;;6121678;23;20244;-84
2021/05/03 05:28:26;;;;;;;5.38;4.05;;;;;;;;;;6121349;23;20026;-84
2021/05/03 05:30:52;;;;;;;5.25;3.92;;;;;;;;;;6146504;23;20503;-84
2021/05/03 05:33:18;;;;;;;8.65;4.22;;;;;;;;;;6119707;23;20026;-85
2021/05/03 05:35:45;;;;;;;6.18;4.03;;;;;;;;;;6120917;23;20076;-84
2021/05/03 05:38:11;;;;;;;8.95;4.80;;;;;;;;;;6147799;23;20031;-84
2021/05/03 05:40:37;;;;;;;7.25;4.30;;;;;;;;;;6121110;23;20227;-85
2021/05/03 05:43:06;;;;;;;7.40;3.85;;;;;;;;;;6146059;23;20033;-85
2021/05/03 05:45:32;;;;;;;6.15;4.07;;;;;;;;;;6121556;23;20065;-84
2021/05/03 05:47:59;;;;;;;8.38;4.20;;;;;;;;;;6123824;23;20433;-84
2021/05/03 05:50:25;;;;;;;9.15;5.00;;;;;;;;;;6152616;23;20113;-86
2021/05/03 05:52:52;;;;;;;7.40;4.35;;;;;;;;;;6127093;23;20018;-84
2021/05/03 05:55:18;;;;;;;8.57;4.53;;;;;;;;;;6149936;23;20029;-85
2021/05/03 05:57:44;;;;;;;8.88;4.50;;;;;;;;;;6150863;23;20036;-84
2021/05/03 06:15:37;;;;;;;12.35;5.53;;;;;;;;;;6250133;22;1586775;-80
2021/05/03 06:18:05;;;;;;;9.52;6.00;;;;;;;;;;6308790;22;20035;-80
2021/05/03 06:20:34;;;;;;;8.30;5.15;;;;;;;;;;6284891;22;20027;-80
2021/05/03 06:23:12;;;;;;;12.68;6.53;;;;;;;;;;6307568;22;20019;-80
2021/05/03 06:25:39;;;;;;;8.52;4.97;;;;;;;;;;6309750;22;20076;-81
2021/05/03 06:28:05;;;;;;;10.65;5.32;;;;;;;;;;6309525;22;20383;-78
2021/05/03 06:30:35;;;;;;;8.40;5.88;;;;;;;;;;6309385;22;20027;-80
2021/05/03 06:33:02;;;;;;;9.30;6.05;;;;;;;;;;6312318;22;20196;-80
2021/05/03 06:35:29;;;;;;;9.27;6.22;;;;;;;;;;6309556;22;20019;-80
2021/05/03 06:37:55;;;;;;;9.57;6.10;;;;;;;;;;6310266;22;20027;-80
2021/05/03 06:40:22;;;;;;;12.35;6.07;;;;;;;;;;6310828;22;20424;-80
2021/05/03 06:42:49;;;;;;;9.27;5.47;;;;;;;;;;6296734;22;20022;-81
2021/05/03 06:45:22;;;;;;;10.77;6.30;;;;;;;;;;6297832;22;20023;-79
2021/05/03 06:47:54;;;;;;;12.88;6.65;;;;;;;;;;6295267;22;20544;-78
2021/05/03 06:50:21;;;;;;;11.18;6.70;;;;;;;;;;6312822;22;20023;-83
2021/05/03 06:52:47;;;;;;;7.15;5.85;;;;;;;;;;6325739;22;20011;-80
2021/05/03 06:55:16;;;;;;;14.30;5.30;;;;;;;;;;6301899;22;20221;-80
2021/05/03 06:57:43;;;;;;;10.93;5.10;;;;;;;;;;6303380;22;20030;-80
2021/05/03 07:00:10;;;;;;;9.18;5.40;;;;;;;;;;6330580;22;20442;-79
2021/05/03 07:02:52;;;;;;;8.98;5.32;;;;;;;;;;6313581;22;20448;-80
2021/05/03 07:05:18;;;;;;;6.85;4.60;;;;;;;;;;6317312;22;20047;-82
2021/05/03 07:07:44;;;;;;;6.10;5.18;;;;;;;;;;6290578;22;20023;-80
2021/05/03 07:10:13;;;;;;;10.25;5.30;;;;;;;;;;6315718;22;20033;-80
2021/05/03 07:12:46;;;;;;;8.63;5.63;;;;;;;;;;6291447;22;20046;-79
2021/05/03 07:15:14;;;;;;;9.52;6.40;;;;;;;;;;6278817;22;20023;-80
2021/05/03 07:17:47;;;;;;;10.70;5.50;;;;;;;;;;6279506;22;20053;-81
2021/05/03 07:20:13;;;;;;;11.05;5.30;;;;;;;;;;6277749;22;20474;-81
2021/05/03 07:22:40;;;;;;;8.27;5.93;;;;;;;;;;6280467;22;20019;-81
2021/05/03 07:25:13;;;;;;;9.85;6.32;;;;;;;;;;6283922;22;20050;-82
2021/05/03 07:27:41;;;;;;;7.43;6.30;;;;;;;;;;6284992;22;20059;-85
2021/05/03 07:30:31;;;;;;;11.48;6.80;;;;;;;;;;6290200;22;20263;-87
2021/05/03 07:33:27;;;;;;;;;;;;;;;;;;;;;
2021/05/03 07:35:58;;;;;;;9.27;6.55;;;;;;;;;;6322050;22;20043;-84
2021/05/03 07:38:46;;;;;;;10.32;6.82;;;;;;;;;;6295062;22;20087;-88
2021/05/03 07:41:21;;;;;;;12.30;8.13;;;;;;;;;;6286333;22;20078;-85
2021/05/03 07:44:01;;;;;;;9.38;6.88;;;;;;;;;;6294206;22;20019;-85
2021/05/03 07:46:29;;;;;;;11.52;7.15;;;;;;;;;;6292086;22;20019;-86
2021/05/03 07:49:06;;;;;;;11.57;7.85;;;;;;;;;;6294317;22;20150;-88
2021/05/03 07:52:02;;;;;;;14.02;8.20;;;;;;;;;;6322062;22;20023;-87
2021/05/03 07:54:45;;;;;;;13.32;7.53;;;;;;;;;;6302296;22;20065;-84
2021/05/03 07:57:35;;;;;;;11.15;7.95;;;;;;;;;;6272150;22;20042;-84
2021/05/03 08:00:05;;;;;;;14.40;7.40;;;;;;;;;;6286975;22;20024;-83
2021/05/03 08:02:32;;;;;;;11.13;7.47;;;;;;;;;;6317188;22;20034;-84
2021/05/03 08:05:05;;;;;;;10.15;8.30;;;;;;;;;;6287325;22;20051;-84
2021/05/03 08:07:37;;;;;;;13.25;9.18;;;;;;;;;;6313796;22;20027;-86
2021/05/03 08:10:12;;;;;;;12.25;8.50;;;;;;;;;;6292597;22;20030;-85
2021/05/03 08:12:57;;;;;;;13.43;9.13;;;;;;;;;;6274580;22;20399;-84
2021/05/03 08:15:24;;;;;;;14.63;10.35;;;;;;;;;;6288085;22;20034;-85
2021/05/03 08:17:53;;;;;;;16.33;10.73;;;;;;;;;;6281415;22;20254;-83
2021/05/03 08:20:41;;;;;;;12.10;10.18;;;;;;;;;;6281935;22;20028;-84
2021/05/03 08:23:28;;;;;;;14.75;11.05;;;;;;;;;;6288680;22;20054;-84
2021/05/03 08:26:14;;;;;;;13.25;9.48;;;;;;;;;;6288074;22;20057;-82
2021/05/03 08:28:47;;;;;;;13.30;9.80;;;;;;;;;;6288823;22;20135;-85
2021/05/03 08:31:15;;;;;;;15.32;11.65;;;;;;;;;;6285643;22;20396;-84
2021/05/03 08:33:45;;;;;;;13.05;9.95;;;;;;;;;;6284175;22;20227;-83
2021/05/03 08:36:13;;;;;;;16.88;10.27;;;;;;;;;;6281551;22;20027;-83
2021/05/03 08:38:41;;;;;;;13.45;9.63;;;;;;;;;;6284323;22;20504;-84
2021/05/03 08:41:08;;;;;;;14.20;9.50;;;;;;;;;;6281088;22;20071;-83
2021/05/03 08:43:40;;;;;;;16.83;10.50;;;;;;;;;;6281122;22;20062;-85
2021/05/03 08:46:15;;;;;;;13.20;8.88;;;;;;;;;;6278943;22;20027;-84
2021/05/03 08:54:41;;;;;;;12.60;9.32;;;;;;;;;;6284813;22;20071;-85
2021/05/03 08:57:14;;;;;;;17.17;11.80;;;;;;;;;;6283612;22;20533;-81
2021/05/03 08:59:44;;;;;;;16.75;10.00;;;;;;;;;;6285385;22;20223;-81
2021/05/03 09:02:12;;;;;;;14.65;10.40;;;;;;;;;;6285218;22;20020;-83
2021/05/03 09:04:41;;;;;;;13.27;8.32;;;;;;;;;;6282880;22;20058;-81
2021/05/03 09:07:11;;;;;;;16.05;9.52;;;;;;;;;;6291306;22;20333;-82
2021/05/03 09:09:39;;;;;;;16.65;10.18;;;;;;;;;;6291208;22;20027;-81
2021/05/03 09:12:13;;;;;;;14.27;10.48;;;;;;;;;;6287443;22;20355;-83
2021/05/03 09:14:44;;;;;;;14.68;9.70;;;;;;;;;;6300648;22;20034;-80
2021/05/03 09:17:23;;;;;;;16.83;10.52;;;;;;;;;;6319713;22;20134;-85
2021/05/03 09:20:22;;;;;;;14.38;10.40;;;;;;;;;;6319614;22;20023;-84
2021/05/03 09:22:53;;;;;;;16.27;11.68;;;;;;;;;;6318620;22;20030;-83
2021/05/03 09:25:47;;;;;;;19.33;11.60;;;;;;;;;;6291849;22;20023;-83
2021/05/03 09:28:34;;;;;;;24.05;13.10;;;;;;;;;;6316849;22;20127;-83
2021/05/03 09:31:10;;;;;;;17.92;11.60;;;;;;;;;;6289858;22;20367;-82
2021/05/03 09:33:41;;;;;;;18.27;11.95;;;;;;;;;;6315325;22;20045;-84
2021/05/03 09:36:12;;;;;;;18.85;13.57;;;;;;;;;;6292782;22;20055;-85
2021/05/03 09:38:50;;;;;;;16.00;12.60;;;;;;;;;;6322010;22;20071;-87
2021/05/03 09:45:01;;;;;;;18.75;12.38;;;;;;;;;;6322765;22;20033;-84
2021/05/03 09:47:34;;;;;;;19.00;13.18;;;;;;;;;;6298113;22;20011;-86
2021/05/03 09:50:02;;;;;;;19.00;13.75;;;;;;;;;;6296674;22;20023;-88
2021/05/03 09:52:31;;;;;;;20.40;15.15;;;;;;;;;;6299531;22;20059;-86
2021/05/03 09:55:31;;;;;;;22.27;14.73;;;;;;;;;;6303708;22;20034;-84
2021/05/03 09:58:10;;;;;;;25.58;17.65;;;;;;;;;;6313926;22;20110;-82
2021/05/03 10:00:55;;;;;;;26.48;18.08;;;;;;;;;;6255375;22;20351;-82
2021/05/03 10:03:30;;;;;;;31.40;20.85;;;;;;;;;;6297255;22;20204;-82
2021/05/03 10:06:01;;;;;;;26.58;20.08;;;;;;;;;;6295774;22;20083;-82
2021/05/03 10:08:29;;;;;;;29.15;21.40;;;;;;;;;;6312903;22;20069;-82
2021/05/03 10:11:00;;;;;;;33.88;23.05;;;;;;;;;;6282573;22;20094;-82
2021/05/03 10:13:27;;;;;;;29.35;21.75;;;;;;;;;;6319815;22;20034;-82
2021/05/03 10:19:15;;;;;;;30.00;23.52;;;;;;;;;;6278737;22;20093;-81
2021/05/03 10:21:43;;;;;;;29.20;20.75;;;;;;;;;;6254056;22;20023;-83
2021/05/03 10:24:13;;;;;;;28.92;23.08;;;;;;;;;;6280401;22;20028;-83
2021/05/03 10:26:44;;;;;;;31.90;22.67;;;;;;;;;;6278024;22;20183;-83
2021/05/03 10:29:40;;;;;;;31.85;23.45;;;;;;;;;;6276085;22;20165;-82
2021/05/03 10:32:20;;;;;;;33.33;23.88;;;;;;;;;;6247743;22;20027;-81
2021/05/03 10:34:48;;;;;;;34.25;24.17;;;;;;;;;;6249253;22;20456;-82
2021/05/03 10:37:36;;;;;;;38.28;26.58;;;;;;;;;;6287100;22;20393;-82
2021/05/03 10:40:24;;;;;;;35.45;26.45;;;;;;;;;;6283515;22;20035;-82
2021/05/03 10:43:20;;;;;;;31.67;22.60;;;;;;;;;;6282439;22;20023;-82
2021/05/03 10:48:35;;;;;;;33.15;22.65;;;;;;;;;;6280381;22;20376;-82
2021/05/03 10:51:11;;;;;;;30.17;23.38;;;;;;;;;;6282895;22;20023;-82
2021/05/03 10:53:45;;;;;;;33.22;23.58;;;;;;;;;;6259425;22;20027;-82
2021/05/03 10:56:12;;;;;;;27.88;22.23;;;;;;;;;;6280206;22;20026;-81
2021/05/03 10:58:57;;;;;;;28.30;20.73;;;;;;;;;;6284933;22;20024;-82
2021/05/03 11:01:26;;;;;;;25.48;20.40;;;;;;;;;;6286409;22;20089;-83
2021/05/03 11:03:56;;;;;;;26.70;18.85;;;;;;;;;;6284570;22;20015;-83
2021/05/03 11:06:37;;;;;;;26.75;21.00;;;;;;;;;;6255676;22;20133;-83
2021/05/03 11:09:23;;;;;;;27.17;20.75;;;;;;;;;;6254805;22;20038;-84
2021/05/03 11:11:50;;;;;;;26.05;19.35;;;;;;;;;;6255398;22;20047;-85
2021/05/03 11:14:31;;;;;;;23.00;18.77;;;;;;;;;;6262722;22;20023;-85
2021/05/03 11:17:25;;;;;;;24.48;19.98;;;;;;;;;;6280611;22;20020;-85
2021/05/03 11:20:10;;;;;;;21.33;17.00;;;;;;;;;;6287453;22;20016;-86
2021/05/03 11:23:04;;;;;;;28.67;18.83;;;;;;;;;;6285827;22;20019;-86
2021/05/03 11:26:16;;;;;;;26.23;17.65;;;;;;;;;;6254126;23;20107;-86
2021/05/03 11:29:11;;;;;;;26.63;19.55;;;;;;;;;;6250867;23;20021;-84
2021/05/03 11:32:00;;;;;;;29.67;19.33;;;;;;;;;;6228592;23;20044;-85
2021/05/03 11:34:54;;;;;;;22.38;18.42;;;;;;;;;;6224708;23;20055;-86
2021/05/03 11:37:40;;;;;;;22.95;18.33;;;;;;;;;;6225534;23;20020;-85
2021/05/03 11:40:28;;;;;;;27.20;19.08;;;;;;;;;;6221607;23;20254;-84
2021/05/03 11:43:19;;;;;;;21.23;16.85;;;;;;;;;;6249717;23;20399;-85
2021/05/03 11:45:53;;;;;;;24.58;18.13;;;;;;;;;;6255354;23;20045;-85
2021/05/03 11:48:28;;;;;;;23.13;19.70;;;;;;;;;;6225234;23;20068;-84
2021/05/03 11:51:18;;;;;;;23.83;19.52;;;;;;;;;;6249098;23;20385;-83
2021/05/03 11:53:54;;;;;;;30.80;21.17;;;;;;;;;;6250826;23;20035;-88
2021/05/03 11:56:33;;;;;;;28.13;21.70;;;;;;;;;;6236127;23;20018;-86
2021/05/03 11:59:06;;;;;;;;;;;;;;;;;;6264615;22;20015;-88
2021/05/03 12:01:34;;;;;;;30.73;24.42;;;;;;;;;;6238533;22;19920;-87
2021/05/03 12:04:01;;;;;;;34.25;26.98;;;;;;;;;;6264627;22;20035;-87
2021/05/03 12:06:42;;;;;;;37.88;28.95;;;;;;;;;;6236965;23;20040;-86
2021/05/03 12:09:29;;;;;;;40.28;30.33;;;;;;;;;;6255855;23;20235;-86
2021/05/03 12:12:03;;;;;;;25.52;19.75;;;;;;;;;;6251358;23;20048;-87
2021/05/03 12:14:47;;;;;;;29.40;21.45;;;;;;;;;;6229135;23;20024;-88
2021/05/03 12:17:17;;;;;;;23.17;16.15;;;;;;;;;;6286166;22;20083;-88
2021/05/03 12:19:47;;;;;;;16.60;13.05;;;;;;;;;;6286622;22;20034;-87
2021/05/03 12:22:15;;;;;;;21.60;13.90;;;;;;;;;;6283738;22;20028;-88
2021/05/03 12:25:13;;;;;;;22.17;17.08;;;;;;;;;;6280148;22;20034;-87
2021/05/03 12:31:02;;;;;;;24.35;17.55;;;;;;;;;;6190145;22;20973;-88
2021/05/03 12:33:35;;;;;;;25.13;18.10;;;;;;;;;;6228946;23;20024;-86
2021/05/03 12:36:01;;;;;;;24.65;17.35;;;;;;;;;;6226865;23;20099;-84
2021/05/03 12:38:31;;;;;;;18.77;15.05;;;;;;;;;;6224374;23;20214;-84
2021/05/03 12:41:16;;;;;;;19.85;15.98;;;;;;;;;;6253331;23;20076;-83
2021/05/03 12:43:43;;;;;;;21.25;15.48;;;;;;;;;;6227234;23;20051;-84
2021/05/03 12:46:30;;;;;;;20.95;13.35;;;;;;;;;;6225751;23;20099;-87
2021/05/03 12:49:14;;;;;;;18.30;14.15;;;;;;;;;;6246729;23;20401;-87
2021/05/03 12:51:59;;;;;;;16.40;12.82;;;;;;;;;;6218435;23;20081;-87
2021/05/03 12:54:44;;;;;;;17.10;12.75;;;;;;;;;;6222198;23;20353;-88
2021/05/03 13:01:05;;;;;;;16.63;13.43;;;;;;;;;;6200227;23;20016;-88
2021/05/03 13:03:33;;;;;;;15.95;12.40;;;;;;;;;;6228994;23;20035;-88
2021/05/03 13:06:49;;;;;;;12.35;9.95;;;;;;;;;;6228459;23;20268;-88
2021/05/03 13:29:46;;;;;;;5.07;4.05;;;;;;;;;;6201505;23;20016;-84
2021/05/03 13:32:18;;;;;;;3.97;3.58;;;;;;;;;;6207694;23;20025;-84
2021/05/03 13:34:48;;;;;;;5.65;4.05;;;;;;;;;;6207903;23;20048;-83
2021/05/03 13:37:16;;;;;;;5.07;4.07;;;;;;;;;;6219938;23;20172;-83
2021/05/03 13:40:03;;;;;;;4.95;4.43;;;;;;;;;;6221336;23;20133;-84
2021/05/03 13:42:29;;;;;;;5.45;4.78;;;;;;;;;;6234396;23;20099;-83
2021/05/03 13:44:55;;;;;;;6.35;5.35;;;;;;;;;;6213969;23;20032;-84
2021/05/03 13:47:27;;;;;;;7.32;5.97;;;;;;;;;;6235151;23;20037;-83
2021/05/03 13:49:58;;;;;;;7.82;6.95;;;;;;;;;;6214511;23;20024;-84
2021/05/03 13:52:25;;;;;;;9.90;7.72;;;;;;;;;;6216828;23;20039;-84
2021/05/03 13:54:52;;;;;;;10.68;6.82;;;;;;;;;;6242309;23;20103;-85
2021/05/03 13:57:18;;;;;;;7.60;6.60;;;;;;;;;;6244086;23;20456;-86
2021/05/03 13:59:45;;;;;;;7.68;6.40;;;;;;;;;;6239207;23;20025;-86
2021/05/03 14:02:11;;;;;;;8.70;6.05;;;;;;;;;;6216281;23;20031;-86
2021/05/03 14:04:52;;;;;;;8.05;6.70;;;;;;;;;;6217318;23;20413;-86
2021/05/03 14:07:23;;;;;;;7.05;6.35;;;;;;;;;;6217302;23;20017;-87
2021/05/03 14:09:50;;;;;;;6.97;5.55;;;;;;;;;;6240849;23;20029;-88
2021/05/03 14:12:19;;;;;;;10.82;6.70;;;;;;;;;;6247464;23;20272;-86
2021/05/03 14:14:45;;;;;;;10.40;6.75;;;;;;;;;;6240916;23;20101;-86
2021/05/03 14:17:11;;;;;;;7.05;5.97;;;;;;;;;;6214655;23;20032;-85
2021/05/03 14:19:42;;;;;;;9.65;7.72;;;;;;;;;;6237017;23;20066;-84
2021/05/03 14:22:08;;;;;;;10.95;8.40;;;;;;;;;;6235850;23;20248;-84
2021/05/03 14:24:34;;;;;;;13.63;8.32;;;;;;;;;;6213721;23;20120;-85
2021/05/03 14:27:07;;;;;;;11.25;9.63;;;;;;;;;;6237101;23;20024;-84
2021/05/03 14:29:45;;;;;;;13.07;9.85;;;;;;;;;;6216434;23;20111;-84
2021/05/03 14:32:37;;;;;;;18.02;11.90;;;;;;;;;;6217034;23;20094;-84
2021/05/03 14:35:05;;;;;;;17.85;15.05;;;;;;;;;;6213866;23;20024;-83
2021/05/03 14:37:38;;;;;;;20.55;16.05;;;;;;;;;;6213670;23;20413;-82
2021/05/03 14:40:04;;;;;;;27.50;17.70;;;;;;;;;;6212362;23;20025;-85
2021/05/03 14:42:30;;;;;;;24.20;18.30;;;;;;;;;;6246199;23;20072;-87
2021/05/03 14:44:58;;;;;;;26.75;19.30;;;;;;;;;;6246512;23;20036;-86
2021/05/03 14:47:32;;;;;;;28.27;21.63;;;;;;;;;;6244687;23;20032;-85
2021/05/03 14:50:08;;;;;;;30.60;19.98;;;;;;;;;;6223616;23;20574;-88
2021/05/03 14:52:54;;;;;;;29.63;20.63;;;;;;;;;;6220510;23;20363;-85
2021/05/03 14:55:22;;;;;;;27.17;18.98;;;;;;;;;;6217360;23;20020;-87
2021/05/03 14:57:53;;;;;;;28.30;17.80;;;;;;;;;;6218959;23;20141;-84
2021/05/03 15:00:20;;;;;;;35.38;20.73;;;;;;;;;;6241102;23;20270;-84
2021/05/03 15:02:46;;;;;;;32.42;23.50;;;;;;;;;;6239042;23;20034;-83
2021/05/03 15:05:15;;;;;;;24.67;20.55;;;;;;;;;;6216106;23;20107;-83
2021/05/03 15:07:43;;;;;;;27.48;20.65;;;;;;;;;;6238027;23;20076;-82
2021/05/03 15:10:30;;;;;;;22.75;17.23;;;;;;;;;;6238536;23;20092;-82
2021/05/03 15:15:57;;;;;;;20.17;16.65;;;;;;;;;;6218297;23;20032;-83
2021/05/03 15:21:38;;;;;;;20.58;16.10;;;;;;;;;;6217753;23;20029;-85
2021/05/03 15:24:13;;;;;;;19.95;16.70;;;;;;;;;;6244234;23;20051;-84
2021/05/03 15:26:46;;;;;;;22.05;17.35;;;;;;;;;;6220231;23;20024;-85
2021/05/03 15:34:24;;;;;;;18.55;15.43;;;;;;;;;;6219392;23;20021;-85
2021/05/03 15:36:50;;;;;;;21.65;14.82;;;;;;;;;;6218824;23;20076;-86
2021/05/03 15:39:17;;;;;;;21.05;15.57;;;;;;;;;;6220777;23;20029;-84
2021/05/03 15:41:43;;;;;;;19.38;14.68;;;;;;;;;;6244957;23;20028;-84
2021/05/03 15:44:21;;;;;;;21.98;16.77;;;;;;;;;;6243644;23;20038;-86
2021/05/03 15:46:48;;;;;;;21.73;16.30;;;;;;;;;;6245288;23;20257;-86
2021/05/03 15:49:14;;;;;;;19.05;16.45;;;;;;;;;;6245465;23;20025;-82
2021/05/03 15:51:42;;;;;;;18.88;15.73;;;;;;;;;;6248594;23;20079;-85
2021/05/03 15:54:10;;;;;;;24.00;14.40;;;;;;;;;;6247586;23;20032;-84
2021/05/03 15:56:38;;;;;;;16.77;13.10;;;;;;;;;;6224711;23;20020;-82
2021/05/03 15:59:05;;;;;;;18.98;14.77;;;;;;;;;;6254160;23;20020;-83
2021/05/03 16:01:32;;;;;;;17.27;14.93;;;;;;;;;;6248262;23;20029;-83
2021/05/03 16:04:09;;;;;;;16.58;14.20;;;;;;;;;;6248228;23;20177;-85
2021/05/03 16:06:41;;;;;;;18.67;15.25;;;;;;;;;;6246367;23;20503;-85
2021/05/03 16:09:14;;;;;;;21.13;14.25;;;;;;;;;;6244099;23;20032;-85
2021/05/03 16:11:59;;;;;;;17.90;14.93;;;;;;;;;;6218560;23;20028;-85
2021/05/03 16:14:41;;;;;;;20.77;15.32;;;;;;;;;;6246408;23;20079;-86
2021/05/03 16:17:27;;;;;;;18.42;14.60;;;;;;;;;;6225488;23;20021;-85
2021/05/03 16:20:14;;;;;;;17.42;13.85;;;;;;;;;;6224772;23;20031;-85
2021/05/03 16:22:45;;;;;;;19.38;13.02;;;;;;;;;;6227433;23;20025;-85
2021/05/03 16:25:14;;;;;;;16.27;12.48;;;;;;;;;;6227256;23;20055;-85